Time;durP1;ratioP1;P1;durP2;ratioP2;P2;SDS_P1;SDS_P2;PMS_P1;PMS_P2;Temp;Humidity;BMP_temperature;BMP_pressure;BME280_temperature;BME280_humidity;BME280_pressure;Samples;Min_cycle;Max_cycle;Signal;HPM_P1;HPM_P2
2023/10/26 00:00:30;;;;;;;2.25;1.30;;;15.90;91.20;;;;;;4958047;28;20022;-81
2023/10/26 00:02:55;;;;;;;1.83;0.85;;;15.90;91.20;;;;;;4958096;28;20035;-81
2023/10/26 00:05:21;;;;;;;1.50;0.90;;;16.00;91.10;;;;;;4975177;28;20026;-82
2023/10/26 00:07:47;;;;;;;1.00;0.70;;;16.00;91.10;;;;;;4957745;28;20059;-81
2023/10/26 00:10:12;;;;;;;1.40;0.80;;;16.00;91.10;;;;;;4957940;28;20509;-81
2023/10/26 00:12:38;;;;;;;1.83;0.90;;;16.00;91.00;;;;;;4957800;28;20504;-81
2023/10/26 00:15:04;;;;;;;1.05;0.82;;;16.00;91.00;;;;;;4957617;28;20023;-81
2023/10/26 00:17:29;;;;;;;1.15;0.70;;;16.00;91.00;;;;;;4957279;28;20121;-81
2023/10/26 00:19:55;;;;;;;1.52;1.00;;;16.00;91.00;;;;;;4957647;28;20058;-81
2023/10/26 00:22:22;;;;;;;1.05;0.80;;;16.00;91.10;;;;;;4957581;28;20109;-81
2023/10/26 00:24:47;;;;;;;2.03;0.90;;;16.00;91.10;;;;;;4957328;28;20030;-81
2023/10/26 00:27:16;;;;;;;1.90;0.90;;;15.90;91.10;;;;;;4957283;28;20027;-81
2023/10/26 00:29:42;;;;;;;0.90;0.70;;;16.00;91.20;;;;;;4957481;28;20117;-82
2023/10/26 00:32:08;;;;;;;1.42;0.90;;;15.90;91.20;;;;;;4957388;28;20054;-81
2023/10/26 00:34:34;;;;;;;1.20;0.85;;;15.90;91.20;;;;;;4955501;28;20061;-81
2023/10/26 00:37:00;;;;;;;1.98;1.00;;;15.90;91.20;;;;;;4957378;28;20456;-81
2023/10/26 00:39:26;;;;;;;1.75;0.82;;;15.90;91.20;;;;;;4989478;28;20110;-81
2023/10/26 00:41:53;;;;;;;1.67;0.88;;;15.90;91.30;;;;;;4989442;28;20019;-81
2023/10/26 00:44:20;;;;;;;1.60;0.95;;;15.90;91.30;;;;;;4974336;28;20551;-81
2023/10/26 00:46:45;;;;;;;1.00;0.70;;;15.90;91.30;;;;;;4974134;28;20081;-81
2023/10/26 00:49:15;;;;;;;1.25;0.88;;;15.90;91.30;;;;;;4989479;28;20067;-82
2023/10/26 00:51:44;;;;;;;2.00;1.02;;;15.90;91.30;;;;;;4957034;28;20062;-82
2023/10/26 00:54:10;;;;;;;1.60;0.90;;;15.90;91.30;;;;;;4956922;28;20034;-81
2023/10/26 00:56:36;;;;;;;1.83;1.00;;;15.90;91.30;;;;;;4956902;28;20027;-80
2023/10/26 00:59:03;;;;;;;2.33;1.00;;;15.90;91.40;;;;;;4989170;28;20490;-81
2023/10/26 01:01:30;;;;;;;1.85;0.90;;;15.90;91.40;;;;;;4956979;28;20074;-81
2023/10/26 01:03:56;;;;;;;1.52;1.00;;;15.90;91.40;;;;;;4957125;28;20444;-81
2023/10/26 01:06:22;;;;;;;1.77;0.93;;;15.80;91.30;;;;;;4989243;28;20115;-81
2023/10/26 01:08:48;;;;;;;2.88;1.02;;;15.90;91.30;;;;;;4956545;28;20135;-81
2023/10/26 01:11:14;;;;;;;1.70;0.80;;;15.90;91.30;;;;;;4974187;28;20538;-81
2023/10/26 01:13:41;;;;;;;1.00;0.88;;;15.90;91.30;;;;;;4989063;28;20405;-81
2023/10/26 01:16:06;;;;;;;1.58;0.80;;;15.90;91.20;;;;;;4956388;28;20018;-81
2023/10/26 01:18:32;;;;;;;2.15;1.10;;;15.90;91.20;;;;;;4973913;28;20042;-81
2023/10/26 01:20:57;;;;;;;1.48;1.00;;;15.90;91.10;;;;;;4988879;28;20023;-81
2023/10/26 01:23:23;;;;;;;1.98;0.85;;;16.00;91.10;;;;;;4988874;28;20027;-81
2023/10/26 01:25:54;;;;;;;1.92;1.02;;;16.00;91.10;;;;;;4988856;28;20033;-81
2023/10/26 01:28:20;;;;;;;0.93;0.80;;;16.00;91.10;;;;;;4956824;28;20027;-81
2023/10/26 01:30:46;;;;;;;1.65;0.90;;;16.00;91.00;;;;;;4973812;28;20110;-81
2023/10/26 01:33:11;;;;;;;1.80;0.90;;;16.00;91.10;;;;;;4975034;28;20027;-81
2023/10/26 01:35:38;;;;;;;1.98;1.02;;;16.00;91.10;;;;;;4988677;28;20030;-81
2023/10/26 01:38:04;;;;;;;1.40;1.08;;;16.00;91.20;;;;;;4988596;28;20073;-81
2023/10/26 01:40:30;;;;;;;1.27;0.88;;;15.90;91.20;;;;;;4973814;28;20023;-81
2023/10/26 01:42:55;;;;;;;1.67;1.00;;;15.90;91.20;;;;;;4956432;28;20485;-81
2023/10/26 01:45:21;;;;;;;1.63;0.95;;;15.90;91.20;;;;;;4974314;28;20034;-82
2023/10/26 01:47:46;;;;;;;1.65;1.00;;;15.90;91.30;;;;;;4992742;28;20027;-81
2023/10/26 01:50:12;;;;;;;1.38;0.90;;;15.90;91.30;;;;;;4992666;28;20425;-81
2023/10/26 01:52:37;;;;;;;1.60;0.95;;;15.90;91.30;;;;;;4992636;28;20027;-82
2023/10/26 01:55:03;;;;;;;1.80;1.00;;;15.90;91.30;;;;;;4992587;28;20026;-81
2023/10/26 01:57:29;;;;;;;2.20;1.10;;;15.90;91.30;;;;;;4992445;28;20456;-81
2023/10/26 01:59:55;;;;;;;1.60;0.80;;;15.90;91.30;;;;;;4992550;28;20397;-81
2023/10/26 02:02:21;;;;;;;1.60;0.90;;;15.90;91.30;;;;;;4992452;28;20061;-81
2023/10/26 02:04:47;;;;;;;2.53;1.40;;;15.90;91.40;;;;;;4960037;28;20023;-80
2023/10/26 02:07:12;;;;;;;1.70;1.02;;;15.90;91.40;;;;;;4992159;28;20030;-81
2023/10/26 02:09:38;;;;;;;1.63;1.00;;;15.90;91.40;;;;;;4992271;28;20069;-81
2023/10/26 02:12:04;;;;;;;2.45;1.02;;;15.90;91.40;;;;;;4977169;28;20054;-81
2023/10/26 02:14:29;;;;;;;1.67;1.10;;;15.80;91.40;;;;;;4992050;28;20027;-81
2023/10/26 02:16:54;;;;;;;1.42;1.00;;;15.80;91.40;;;;;;4974678;28;20501;-81
2023/10/26 02:19:20;;;;;;;1.20;0.75;;;15.80;91.40;;;;;;4940669;29;20023;-81
2023/10/26 02:21:46;;;;;;;1.45;1.00;;;15.80;91.40;;;;;;4957910;29;20537;-81
2023/10/26 02:24:11;;;;;;;1.27;0.98;;;15.80;91.40;;;;;;4940547;29;20023;-81
2023/10/26 02:26:37;;;;;;;1.33;0.80;;;15.80;91.40;;;;;;4940497;29;20027;-81
2023/10/26 02:29:03;;;;;;;1.85;0.70;;;15.90;91.30;;;;;;4940643;29;20392;-81
2023/10/26 02:31:28;;;;;;;1.15;0.80;;;15.90;91.30;;;;;;4940716;29;20034;-81
2023/10/26 02:33:54;;;;;;;1.25;0.80;;;15.90;91.20;;;;;;4957528;29;20063;-81
2023/10/26 02:36:19;;;;;;;1.13;0.90;;;15.90;91.20;;;;;;4940308;29;20024;-81
2023/10/26 02:38:45;;;;;;;1.75;0.90;;;16.00;91.10;;;;;;4957401;29;20405;-81
2023/10/26 02:41:10;;;;;;;0.80;0.80;;;16.00;91.10;;;;;;4940267;29;20110;-81
2023/10/26 02:43:36;;;;;;;1.70;1.00;;;16.00;91.10;;;;;;4957319;29;20031;-81
2023/10/26 02:46:04;;;;;;;1.05;0.80;;;16.00;91.10;;;;;;4940005;29;20027;-81
2023/10/26 02:48:30;;;;;;;1.33;1.00;;;16.00;91.10;;;;;;4939976;29;20042;-81
2023/10/26 02:50:56;;;;;;;1.48;1.00;;;15.90;91.10;;;;;;4940118;29;20031;-81
2023/10/26 02:53:21;;;;;;;2.13;1.00;;;15.90;91.20;;;;;;4940003;29;20031;-81
2023/10/26 02:55:47;;;;;;;1.55;1.00;;;15.90;91.20;;;;;;4940135;29;20122;-81
2023/10/26 02:58:12;;;;;;;1.38;1.00;;;15.90;91.30;;;;;;4955797;28;20035;-81
2023/10/26 03:00:38;;;;;;;2.03;1.10;;;15.90;91.30;;;;;;4939958;29;20496;-81
2023/10/26 03:03:03;;;;;;;1.85;1.10;;;15.90;91.30;;;;;;4939898;29;20030;-81
2023/10/26 03:05:29;;;;;;;1.65;1.10;;;15.90;91.30;;;;;;4956951;29;20027;-81
2023/10/26 03:07:55;;;;;;;2.42;0.93;;;15.90;91.40;;;;;;4939476;29;20038;-81
2023/10/26 03:10:22;;;;;;;1.20;1.00;;;15.80;91.40;;;;;;4939648;29;20023;-81
2023/10/26 03:12:48;;;;;;;1.73;0.90;;;15.80;91.40;;;;;;4956905;29;20027;-82
2023/10/26 03:15:14;;;;;;;1.70;1.02;;;15.80;91.40;;;;;;4956961;29;20086;-81
2023/10/26 03:17:40;;;;;;;2.38;1.33;;;15.80;91.40;;;;;;4939278;29;20035;-81
2023/10/26 03:20:06;;;;;;;1.83;1.10;;;15.80;91.40;;;;;;4956662;29;20094;-82
2023/10/26 03:22:34;;;;;;;1.38;0.95;;;15.80;91.40;;;;;;4939558;29;20038;-82
2023/10/26 03:25:00;;;;;;;1.80;1.10;;;15.80;91.40;;;;;;4939396;29;20027;-81
2023/10/26 03:27:26;;;;;;;1.48;0.90;;;15.80;91.40;;;;;;4939281;29;20027;-81
2023/10/26 03:29:52;;;;;;;1.95;1.10;;;15.80;91.40;;;;;;4939449;29;20019;-82
2023/10/26 03:32:18;;;;;;;1.60;1.00;;;15.80;91.40;;;;;;4956721;29;20027;-82
2023/10/26 03:34:43;;;;;;;1.73;0.90;;;15.80;91.40;;;;;;4939289;29;20026;-83
2023/10/26 03:37:09;;;;;;;1.20;1.00;;;15.80;91.40;;;;;;4956197;29;20031;-81
2023/10/26 03:39:35;;;;;;;1.73;1.00;;;15.80;91.70;;;;;;4956352;29;20343;-81
2023/10/26 03:42:01;;;;;;;1.13;0.90;;;15.80;91.40;;;;;;4939135;29;20015;-82
2023/10/26 03:44:26;;;;;;;1.35;1.00;;;15.90;91.30;;;;;;4939165;29;20051;-83
2023/10/26 03:46:52;;;;;;;1.52;0.90;;;15.90;91.30;;;;;;4938884;29;20027;-82
2023/10/26 03:49:19;;;;;;;1.48;0.82;;;15.90;91.20;;;;;;4938991;29;20031;-82
2023/10/26 03:51:46;;;;;;;1.00;0.90;;;15.90;91.20;;;;;;4956093;29;20557;-81
2023/10/26 03:54:12;;;;;;;0.93;0.80;;;15.90;91.20;;;;;;4938827;29;20031;-82
2023/10/26 03:56:37;;;;;;;1.13;1.00;;;15.90;91.10;;;;;;4956087;29;20027;-81
2023/10/26 03:59:03;;;;;;;1.88;1.10;;;15.90;91.10;;;;;;4938827;29;20050;-81
2023/10/26 04:01:28;;;;;;;2.03;1.20;;;16.00;91.10;;;;;;4938977;29;20023;-81
2023/10/26 04:03:54;;;;;;;1.40;0.98;;;15.90;91.10;;;;;;4938850;29;20023;-81
2023/10/26 04:06:19;;;;;;;1.17;0.98;;;15.90;91.10;;;;;;4938690;29;20548;-81
2023/10/26 04:08:45;;;;;;;1.23;0.90;;;15.90;91.20;;;;;;4938094;29;20031;-81
2023/10/26 04:11:17;;;;;;;1.40;1.05;;;15.90;91.20;;;;;;4938513;29;20027;-81
2023/10/26 04:13:43;;;;;;;1.42;1.10;;;15.90;91.30;;;;;;4938421;29;20031;-81
2023/10/26 04:16:09;;;;;;;2.42;1.10;;;15.90;91.30;;;;;;4955756;29;20106;-81
2023/10/26 04:18:34;;;;;;;1.42;1.00;;;15.80;91.30;;;;;;4948285;28;20066;-82
2023/10/26 04:21:00;;;;;;;1.83;1.00;;;15.80;91.30;;;;;;4957642;28;20025;-81
2023/10/26 04:23:27;;;;;;;1.27;0.90;;;15.80;91.30;;;;;;4957415;28;20039;-81
2023/10/26 04:25:53;;;;;;;2.00;1.20;;;15.80;91.40;;;;;;4957356;28;20026;-81
2023/10/26 04:28:18;;;;;;;1.83;1.10;;;15.80;91.40;;;;;;4974049;28;20034;-81
2023/10/26 04:30:47;;;;;;;1.23;0.98;;;15.80;91.40;;;;;;4957206;28;20109;-81
2023/10/26 04:33:16;;;;;;;1.63;0.88;;;15.80;91.40;;;;;;4957269;28;20035;-81
2023/10/26 04:35:46;;;;;;;1.42;1.00;;;15.80;91.40;;;;;;4974470;28;20023;-81
2023/10/26 04:38:12;;;;;;;1.30;0.95;;;15.80;91.40;;;;;;4956115;28;20019;-81
2023/10/26 04:40:39;;;;;;;1.70;1.10;;;15.80;91.40;;;;;;4944629;29;20130;-80
2023/10/26 04:43:06;;;;;;;1.35;0.95;;;15.80;91.40;;;;;;4934768;29;20043;-83
2023/10/26 04:45:32;;;;;;;1.75;1.10;;;15.80;91.40;;;;;;4952475;29;20054;-81
2023/10/26 04:47:58;;;;;;;1.50;1.08;;;15.80;91.50;;;;;;4951544;28;20027;-81
2023/10/26 04:50:27;;;;;;;1.55;1.00;;;15.80;91.40;;;;;;4955876;28;20066;-80
2023/10/26 04:52:53;;;;;;;1.77;1.15;;;15.80;91.40;;;;;;4962694;28;20041;-80
2023/10/26 04:55:19;;;;;;;1.15;0.90;;;15.80;91.40;;;;;;4975684;28;20559;-81
2023/10/26 04:57:45;;;;;;;2.05;1.02;;;15.70;91.40;;;;;;4993654;28;20026;-80
2023/10/26 05:00:11;;;;;;;1.83;1.10;;;15.80;91.40;;;;;;4955616;28;20027;-80
2023/10/26 05:02:37;;;;;;;1.20;1.00;;;15.80;91.30;;;;;;4952813;29;20039;-80
2023/10/26 05:05:03;;;;;;;1.65;0.90;;;15.90;91.30;;;;;;4954544;29;20114;-80
2023/10/26 05:07:30;;;;;;;1.77;1.05;;;15.90;91.30;;;;;;4955558;28;20030;-80
2023/10/26 05:09:56;;;;;;;0.93;0.82;;;15.90;91.20;;;;;;4972127;28;20078;-81
2023/10/26 05:12:22;;;;;;;1.80;0.93;;;15.90;91.20;;;;;;4974166;28;20565;-80
2023/10/26 05:14:47;;;;;;;1.25;0.90;;;15.90;91.20;;;;;;4955126;28;20031;-81
2023/10/26 05:17:13;;;;;;;1.05;0.80;;;15.90;91.10;;;;;;4971905;28;20678;-81
2023/10/26 05:19:39;;;;;;;1.60;1.10;;;15.90;91.20;;;;;;4954033;28;20026;-84
2023/10/26 05:22:05;;;;;;;1.42;1.05;;;15.90;91.20;;;;;;4952860;28;20549;-83
2023/10/26 05:24:30;;;;;;;2.22;1.00;;;15.90;91.20;;;;;;4954887;28;20023;-82
2023/10/26 05:26:56;;;;;;;2.08;0.85;;;15.90;91.30;;;;;;4970378;28;20812;-84
2023/10/26 05:29:21;;;;;;;1.05;0.88;;;15.80;91.30;;;;;;4974228;28;20033;-85
2023/10/26 05:31:50;;;;;;;1.10;0.85;;;15.90;91.30;;;;;;4956912;28;20054;-83
2023/10/26 05:34:15;;;;;;;1.30;0.90;;;15.80;91.30;;;;;;4951018;29;20163;-81
2023/10/26 05:36:41;;;;;;;1.15;0.98;;;15.70;91.30;;;;;;4950414;29;20125;-84
2023/10/26 05:39:07;;;;;;;1.63;0.95;;;15.80;91.40;;;;;;4953615;28;20106;-80
2023/10/26 05:41:35;;;;;;;1.15;0.85;;;15.80;91.40;;;;;;4971329;28;20085;-79
2023/10/26 05:44:09;;;;;;;0.93;0.80;;;15.80;91.40;;;;;;4971859;28;20409;-82
2023/10/26 05:46:35;;;;;;;1.40;0.90;;;15.80;91.40;;;;;;4952095;28;20022;-80
2023/10/26 05:49:01;;;;;;;2.17;1.00;;;15.80;91.40;;;;;;4951066;29;20402;-81
2023/10/26 05:51:26;;;;;;;1.73;1.00;;;15.80;91.40;;;;;;4950375;28;20027;-79
2023/10/26 05:53:52;;;;;;;0.98;0.80;;;15.80;91.40;;;;;;4986532;28;20031;-81
2023/10/26 05:56:17;;;;;;;1.38;0.88;;;15.80;91.50;;;;;;4974360;28;20022;-80
2023/10/26 05:58:43;;;;;;;1.45;1.10;;;15.80;91.50;;;;;;4991292;28;20030;-81
2023/10/26 06:01:09;;;;;;;1.10;0.82;;;15.80;91.50;;;;;;4936332;28;20023;-81
2023/10/26 06:03:34;;;;;;;1.13;0.80;;;15.80;91.50;;;;;;4935607;29;20047;-82
2023/10/26 06:06:01;;;;;;;1.42;1.00;;;15.70;91.40;;;;;;4935162;29;20837;-81
2023/10/26 06:08:27;;;;;;;1.30;0.95;;;15.70;91.40;;;;;;4935031;29;20051;-81
2023/10/26 06:10:52;;;;;;;1.02;0.90;;;15.80;91.50;;;;;;4935345;29;20061;-83
2023/10/26 06:13:18;;;;;;;2.05;0.90;;;15.80;91.50;;;;;;4936256;29;20086;-81
2023/10/26 06:15:44;;;;;;;1.23;0.85;;;15.80;91.40;;;;;;4943288;28;20126;-81
2023/10/26 06:18:10;;;;;;;2.08;1.00;;;15.80;91.40;;;;;;4951736;29;20106;-81
2023/10/26 06:20:36;;;;;;;1.13;0.75;;;15.80;91.30;;;;;;4951902;29;20035;-82
2023/10/26 06:23:02;;;;;;;1.10;0.85;;;15.80;91.30;;;;;;4951191;28;20065;-82
2023/10/26 06:25:38;;;;;;;0.88;0.68;;;15.80;91.20;;;;;;4973037;28;20049;-82
2023/10/26 06:28:04;;;;;;;1.83;0.85;;;15.90;91.20;;;;;;4955745;28;20026;-83
2023/10/26 06:30:31;;;;;;;1.10;0.90;;;15.90;91.20;;;;;;4972867;28;20034;-82
2023/10/26 06:32:58;;;;;;;0.75;0.70;;;15.90;91.20;;;;;;4979665;28;20101;-81
2023/10/26 06:35:24;;;;;;;0.93;0.73;;;15.90;91.20;;;;;;4955988;29;20027;-83
2023/10/26 06:37:50;;;;;;;1.17;0.90;;;15.90;91.20;;;;;;4956023;29;20031;-82
2023/10/26 06:40:15;;;;;;;1.00;0.80;;;15.80;91.20;;;;;;4956743;29;20405;-83
2023/10/26 06:42:41;;;;;;;1.00;0.80;;;15.80;91.30;;;;;;4956454;29;20485;-82
2023/10/26 06:45:08;;;;;;;0.90;0.80;;;15.80;91.30;;;;;;4956108;29;20531;-82
2023/10/26 06:47:33;;;;;;;1.13;0.82;;;15.80;91.30;;;;;;4956181;29;20031;-81
2023/10/26 06:49:59;;;;;;;0.82;0.73;;;15.80;91.40;;;;;;4955447;29;20037;-80
2023/10/26 06:52:25;;;;;;;1.00;0.90;;;15.80;91.40;;;;;;4956640;29;20442;-82
2023/10/26 06:54:51;;;;;;;1.92;1.00;;;15.80;91.40;;;;;;4955978;29;20033;-80
2023/10/26 06:57:16;;;;;;;0.93;0.80;;;15.80;91.40;;;;;;4956541;29;20086;-81
2023/10/26 06:59:42;;;;;;;1.05;0.80;;;15.80;91.40;;;;;;4958846;28;20093;-84
2023/10/26 07:02:08;;;;;;;1.08;0.77;;;15.80;91.40;;;;;;4958200;28;20532;-82
2023/10/26 07:04:35;;;;;;;1.10;0.80;;;15.80;91.40;;;;;;4959506;28;20062;-83
2023/10/26 07:07:01;;;;;;;1.02;0.70;;;15.80;91.40;;;;;;4958370;28;20038;-81
2023/10/26 07:09:26;;;;;;;0.90;0.80;;;15.70;91.40;;;;;;4959433;28;20030;-83
2023/10/26 07:11:52;;;;;;;1.13;0.90;;;15.80;91.50;;;;;;4974743;28;20031;-81
2023/10/26 07:14:17;;;;;;;0.98;0.77;;;15.70;91.40;;;;;;4958652;28;20064;-83
2023/10/26 07:16:43;;;;;;;0.80;0.70;;;15.80;91.50;;;;;;4973953;28;20035;-82
2023/10/26 07:19:08;;;;;;;1.10;0.80;;;15.70;91.40;;;;;;4958481;28;20078;-81
2023/10/26 07:21:35;;;;;;;0.90;0.70;;;15.70;91.40;;;;;;4959024;28;20027;-80
2023/10/26 07:24:00;;;;;;;1.33;0.75;;;15.70;91.50;;;;;;4960520;28;20031;-84
2023/10/26 07:26:26;;;;;;;1.60;0.60;;;15.70;91.40;;;;;;4958963;28;20489;-82
2023/10/26 07:28:54;;;;;;;0.90;0.75;;;15.70;91.50;;;;;;4976899;28;20038;-82
2023/10/26 07:31:21;;;;;;;0.93;0.70;;;15.80;91.40;;;;;;4961117;28;20035;-83
2023/10/26 07:33:47;;;;;;;2.03;0.85;;;15.80;91.40;;;;;;4960637;28;20050;-83
2023/10/26 07:36:13;;;;;;;1.23;0.90;;;15.80;91.30;;;;;;4977638;28;20031;-82
2023/10/26 07:38:40;;;;;;;0.77;0.68;;;15.80;91.20;;;;;;4959781;28;20094;-84
2023/10/26 07:41:05;;;;;;;0.77;0.70;;;15.90;91.20;;;;;;4960630;28;20027;-83
2023/10/26 07:43:31;;;;;;;1.88;0.80;;;15.80;91.10;;;;;;4959230;28;20031;-83
2023/10/26 07:45:57;;;;;;;0.93;0.80;;;15.70;91.10;;;;;;4959503;28;20251;-83
2023/10/26 07:48:22;;;;;;;0.90;0.70;;;15.90;91.10;;;;;;4960088;28;20734;-81
2023/10/26 07:50:48;;;;;;;1.38;0.88;;;15.90;91.10;;;;;;4977531;28;20146;-83
2023/10/26 07:53:17;;;;;;;1.88;0.80;;;15.80;91.20;;;;;;4960109;28;20042;-82
2023/10/26 07:55:45;;;;;;;1.15;0.88;;;15.80;91.20;;;;;;4960428;28;20051;-83
2023/10/26 07:58:10;;;;;;;1.33;0.80;;;15.90;91.30;;;;;;4959877;28;20046;-83
2023/10/26 08:00:37;;;;;;;1.83;0.80;;;15.80;91.30;;;;;;4959765;28;20488;-82
2023/10/26 08:03:03;;;;;;;2.00;0.90;;;15.80;91.30;;;;;;4959864;28;20026;-82
2023/10/26 08:05:29;;;;;;;1.65;0.90;;;15.80;91.30;;;;;;4960823;28;20035;-83
2023/10/26 08:07:54;;;;;;;1.40;0.80;;;15.70;91.30;;;;;;4959859;28;20023;-83
2023/10/26 08:10:20;;;;;;;1.23;0.80;;;15.80;91.40;;;;;;4959704;28;20473;-82
2023/10/26 08:12:52;;;;;;;1.20;0.90;;;15.70;91.40;;;;;;4977049;28;20517;-81
2023/10/26 08:18:11;;;;;;;0.98;0.73;;;15.70;91.40;;;;;;4975015;28;20054;-81
2023/10/26 08:20:48;;;;;;;1.27;0.82;;;15.80;91.40;;;;;;4960094;28;20039;-82
2023/10/26 08:23:56;;;;;;;1.98;0.70;;;15.80;91.40;;;;;;4989659;28;20046;-83
2023/10/26 08:26:36;;;;;;;0.80;0.80;;;15.70;91.40;;;;;;4989121;28;20419;-81
2023/10/26 08:29:31;;;;;;;1.38;0.90;;;15.60;91.40;;;;;;4979252;28;20030;-82
2023/10/26 08:32:34;;;;;;;1.42;0.88;;;15.70;91.40;;;;;;4978575;28;20065;-82
2023/10/26 08:35:29;;;;;;;1.08;0.80;;;15.70;91.40;;;;;;4979266;28;20180;-81
2023/10/26 08:38:22;;;;;;;1.25;0.80;;;15.80;91.50;;;;;;4968003;28;20045;-81
2023/10/26 08:40:55;;;;;;;0.98;0.82;;;15.70;91.40;;;;;;4978664;28;20033;-82
2023/10/26 08:43:53;;;;;;;1.02;0.73;;;16.00;91.50;;;;;;4978403;28;20038;-82
2023/10/26 08:46:53;;;;;;;1.00;0.90;;;15.70;91.40;;;;;;4972155;28;20121;-81
2023/10/26 08:49:58;;;;;;;1.00;0.70;;;15.20;91.20;;;;;;4978539;28;20034;-83
2023/10/26 08:52:54;;;;;;;0.90;0.80;;;15.80;91.30;;;;;;4950311;28;20046;-81
2023/10/26 08:55:52;;;;;;;0.95;0.60;;;16.10;91.30;;;;;;4976729;28;20041;-81
2023/10/26 08:59:02;;;;;;;;;;;;;;;;;;;;;
2023/10/26 09:05:21;;;;;;;0.70;0.60;;;15.80;91.20;;;;;;4985237;28;20374;-81
2023/10/26 09:07:56;;;;;;;0.90;0.70;;;15.80;91.20;;;;;;4977901;28;20030;-81
2023/10/26 09:10:42;;;;;;;1.33;0.80;;;15.90;91.30;;;;;;4978888;28;20023;-81
2023/10/26 09:13:30;;;;;;;0.80;0.70;;;15.80;91.30;;;;;;4995905;28;20034;-81
2023/10/26 09:15:58;;;;;;;0.77;0.75;;;15.80;91.30;;;;;;4977712;28;20132;-81
2023/10/26 09:18:38;;;;;;;;;;;;;;;;;;;;;
2023/10/26 09:24:27;;;;;;;1.30;0.80;;;15.70;91.40;;;;;;4986702;28;20396;-83
2023/10/26 09:27:18;;;;;;;0.80;0.80;;;15.70;91.40;;;;;;4993664;28;20030;-82
2023/10/26 09:30:08;;;;;;;;;;;;;;;;;;;;;
2023/10/26 09:32:43;;;;;;;1.00;0.90;;;15.70;91.40;;;;;;4987296;28;20034;-82
2023/10/26 09:35:33;;;;;;;2.28;0.80;;;15.70;91.40;;;;;;4975035;28;20031;-84
2023/10/26 09:38:03;;;;;;;0.95;0.80;;;15.70;91.40;;;;;;4976269;28;20058;-81
2023/10/26 09:40:52;;;;;;;0.93;0.70;;;15.70;91.40;;;;;;4976194;28;20077;-81
2023/10/26 09:43:34;;;;;;;1.17;0.70;;;15.70;91.40;;;;;;4976899;28;20068;-84
2023/10/26 09:46:05;;;;;;;0.77;0.60;;;15.70;91.40;;;;;;4975983;28;20070;-83
2023/10/26 09:49:28;;;;;;;0.88;0.80;;;15.70;91.50;;;;;;4992642;28;20031;-80
2023/10/26 09:51:54;;;;;;;0.70;0.70;;;15.80;91.50;;;;;;4974820;28;20512;-82
2023/10/26 09:54:42;;;;;;;0.77;0.63;;;16.20;91.60;;;;;;4974747;28;20034;-80
2023/10/26 09:57:56;;;;;;;1.13;0.80;;;15.70;91.50;;;;;;4975275;28;20499;-81
2023/10/26 10:00:37;;;;;;;1.25;0.73;;;15.70;91.50;;;;;;4966836;28;20066;-80
2023/10/26 10:03:21;;;;;;;1.20;0.70;;;15.70;91.40;;;;;;4973225;28;20070;-82
2023/10/26 10:06:13;;;;;;;0.80;0.80;;;15.70;91.40;;;;;;4991708;28;20098;-82
2023/10/26 10:09:01;;;;;;;2.05;1.10;;;15.80;91.30;;;;;;4977213;28;20037;-81
2023/10/26 10:11:26;;;;;;;1.17;0.77;;;15.80;91.30;;;;;;4977473;28;20145;-80
2023/10/26 10:13:52;;;;;;;0.70;0.70;;;15.80;91.20;;;;;;4977348;28;20125;-80
2023/10/26 10:16:35;;;;;;;0.73;0.73;;;15.90;91.20;;;;;;4976997;28;20093;-80
2023/10/26 10:19:24;;;;;;;0.75;0.70;;;15.80;91.20;;;;;;4977275;28;20037;-81
2023/10/26 10:21:51;;;;;;;0.70;0.70;;;15.80;91.20;;;;;;4977569;28;20027;-81
2023/10/26 10:24:38;;;;;;;0.82;0.70;;;15.80;91.20;;;;;;4977448;28;20030;-80
2023/10/26 10:27:09;;;;;;;1.10;0.80;;;15.80;91.30;;;;;;4977311;28;20022;-81
2023/10/26 10:29:34;;;;;;;1.50;0.65;;;15.80;91.30;;;;;;4977970;28;20030;-81
2023/10/26 10:32:00;;;;;;;0.75;0.73;;;15.70;91.30;;;;;;4978304;28;20594;-81
2023/10/26 10:34:29;;;;;;;1.17;0.90;;;15.70;91.30;;;;;;4978047;28;20404;-81
2023/10/26 10:37:14;;;;;;;1.23;0.80;;;15.80;91.60;;;;;;4977772;28;20485;-80
2023/10/26 10:40:12;;;;;;;1.63;0.75;;;15.70;91.40;;;;;;4978773;28;20022;-84
2023/10/26 10:42:39;;;;;;;0.70;0.70;;;15.70;91.50;;;;;;4969873;28;20041;-80
2023/10/26 10:45:11;;;;;;;0.85;0.63;;;15.70;91.40;;;;;;4977280;28;20030;-81
2023/10/26 10:47:37;;;;;;;;;;;15.70;91.40;;;;;;4995498;28;20061;-80
2023/10/26 10:50:16;;;;;;;0.65;0.65;;;15.70;91.40;;;;;;4977158;28;20288;-81
2023/10/26 10:52:41;;;;;;;0.95;0.80;;;15.70;91.40;;;;;;4977318;28;20031;-81
2023/10/26 10:55:08;;;;;;;1.33;0.70;;;15.70;91.40;;;;;;4994731;28;20113;-81
2023/10/26 10:57:33;;;;;;;0.68;0.68;;;15.80;91.50;;;;;;4977572;28;20026;-81
2023/10/26 10:59:59;;;;;;;0.75;0.70;;;15.70;91.50;;;;;;4977197;28;20025;-81
2023/10/26 11:02:24;;;;;;;1.27;0.90;;;15.80;91.50;;;;;;4977675;28;20023;-81
2023/10/26 11:04:58;;;;;;;0.80;0.70;;;15.70;91.50;;;;;;4976806;28;20069;-81
2023/10/26 11:07:28;;;;;;;1.17;0.80;;;15.70;91.50;;;;;;4976674;28;20392;-82
2023/10/26 11:09:58;;;;;;;1.08;0.80;;;15.70;91.50;;;;;;4976830;28;20052;-80
2023/10/26 11:12:24;;;;;;;0.98;0.80;;;15.70;91.50;;;;;;4977092;28;20090;-81
2023/10/26 11:14:51;;;;;;;1.23;0.80;;;15.70;91.50;;;;;;4992205;28;20433;-81
2023/10/26 11:17:22;;;;;;;0.82;0.70;;;15.70;91.40;;;;;;4976272;28;20497;-81
2023/10/26 11:19:49;;;;;;;0.70;0.70;;;15.70;91.40;;;;;;4993720;28;20035;-82
2023/10/26 11:22:15;;;;;;;0.70;0.70;;;15.80;91.40;;;;;;4977024;28;20623;-82
2023/10/26 11:24:42;;;;;;;0.88;0.75;;;15.80;91.40;;;;;;4976500;28;20053;-81
2023/10/26 11:27:12;;;;;;;0.68;0.60;;;15.80;91.30;;;;;;4976653;28;20527;-79
2023/10/26 11:29:38;;;;;;;0.73;0.73;;;15.80;91.20;;;;;;4976229;28;20026;-83
2023/10/26 11:32:16;;;;;;;0.70;0.70;;;15.80;91.20;;;;;;4977247;28;20033;-81
2023/10/26 11:35:27;;;;;;;0.98;0.70;;;15.80;91.20;;;;;;4976572;28;20034;-82
2023/10/26 11:37:55;;;;;;;0.77;0.70;;;15.80;91.20;;;;;;4968621;28;20652;-82
2023/10/26 11:40:29;;;;;;;0.85;0.80;;;15.80;91.20;;;;;;4960637;28;20034;-81
2023/10/26 11:43:03;;;;;;;0.93;0.82;;;15.80;91.30;;;;;;4963547;28;20030;-81
2023/10/26 11:45:29;;;;;;;0.80;0.70;;;15.80;91.30;;;;;;4973669;28;20031;-81
2023/10/26 11:48:01;;;;;;;0.82;0.70;;;15.80;91.30;;;;;;4956783;28;20034;-82
2023/10/26 11:50:29;;;;;;;1.38;0.93;;;15.80;91.30;;;;;;4956679;28;20035;-80
2023/10/26 11:52:59;;;;;;;0.73;0.70;;;15.80;91.30;;;;;;4956731;28;20027;-79
2023/10/26 11:55:27;;;;;;;1.73;0.93;;;15.80;91.40;;;;;;4972785;28;20516;-79
2023/10/26 11:57:56;;;;;;;0.90;0.68;;;15.80;91.40;;;;;;4955770;28;20023;-80
2023/10/26 12:00:22;;;;;;;0.90;0.80;;;15.80;91.30;;;;;;4974427;28;20033;-80
2023/10/26 12:02:48;;;;;;;0.88;0.70;;;15.80;91.30;;;;;;4974940;28;20022;-81
2023/10/26 12:27:07;;;;;;;0.75;0.70;;;15.70;91.40;;;;;;5077605;23;19933;-80
2023/10/26 12:29:33;;;;;;;1.15;0.90;;;15.80;91.40;;;;;;4993870;28;20105;-81
2023/10/26 12:31:59;;;;;;;1.13;0.80;;;15.80;91.40;;;;;;4975346;28;20113;-80
2023/10/26 12:34:24;;;;;;;0.75;0.73;;;16.00;91.50;;;;;;4976289;28;20058;-80
2023/10/26 12:36:55;;;;;;;1.20;0.88;;;16.80;91.60;;;;;;4993215;28;20034;-80
2023/10/26 12:39:23;;;;;;;1.45;0.90;;;15.90;91.40;;;;;;4975844;28;20042;-80
2023/10/26 12:41:49;;;;;;;0.85;0.80;;;17.30;91.70;;;;;;4976103;28;20026;-81
2023/10/26 12:44:25;;;;;;;1.70;0.90;;;15.80;91.30;;;;;;4976025;28;20054;-81
2023/10/26 12:46:53;;;;;;;1.10;0.85;;;15.80;91.20;;;;;;4993912;28;20030;-81
2023/10/26 12:49:23;;;;;;;0.93;0.80;;;15.90;91.20;;;;;;4994573;28;20461;-81
2023/10/26 12:51:51;;;;;;;0.75;0.75;;;16.10;91.20;;;;;;4976348;28;20086;-79
2023/10/26 12:54:31;;;;;;;1.10;0.93;;;15.90;91.20;;;;;;4974743;28;20038;-80
2023/10/26 12:57:06;;;;;;;1.08;0.80;;;15.80;91.20;;;;;;4975968;28;20070;-80
2023/10/26 12:59:53;;;;;;;0.90;0.80;;;15.90;91.30;;;;;;4976274;28;20062;-80
2023/10/26 13:02:29;;;;;;;0.80;0.80;;;15.70;91.20;;;;;;4976101;28;20454;-80
2023/10/26 13:05:00;;;;;;;1.35;0.98;;;15.80;91.30;;;;;;4975973;28;20026;-81
2023/10/26 13:07:29;;;;;;;1.23;1.02;;;15.80;91.30;;;;;;4994494;28;20037;-81
2023/10/26 13:09:58;;;;;;;0.73;0.70;;;16.00;91.40;;;;;;4993735;28;20026;-81
2023/10/26 13:12:47;;;;;;;1.10;0.88;;;15.90;91.40;;;;;;4976347;28;20038;-80
2023/10/26 13:15:14;;;;;;;1.40;1.00;;;15.80;91.40;;;;;;4976001;28;20033;-81
2023/10/26 13:17:39;;;;;;;1.05;0.93;;;15.80;91.40;;;;;;4974530;28;20102;-77
2023/10/26 13:20:05;;;;;;;1.13;0.93;;;15.80;91.40;;;;;;4989524;28;20433;-80
2023/10/26 13:22:31;;;;;;;1.02;0.80;;;15.70;91.40;;;;;;4976732;28;20030;-79
2023/10/26 13:24:57;;;;;;;1.20;0.90;;;15.70;91.40;;;;;;4975924;28;20037;-79
2023/10/26 13:27:23;;;;;;;1.30;0.90;;;15.70;91.40;;;;;;4976071;28;20022;-79
2023/10/26 13:29:49;;;;;;;1.45;1.00;;;15.70;91.40;;;;;;4993608;28;20027;-79
2023/10/26 13:32:14;;;;;;;1.15;0.90;;;15.70;91.40;;;;;;4975932;28;20406;-80
2023/10/26 13:34:40;;;;;;;1.02;0.90;;;15.70;91.40;;;;;;4976176;28;20022;-80